Domov               UVHVVR             MKGP            O straneh              
ZDRAVSTVENO VARSTVO RASTLIN
  MREŽA AGROMET. POSTAJ
 ► PROGNOSTIČNA OBVESTILA
AGROMETEOROLOŠKI PODATKI -
ARSO
OBVLADOVANJE TVEGANJ ZARADI
NEUGODNIH VREMENSKIH RAZMER
  ► NARAVNE NESREČE
  ► SUŠA/MOČA
  ► NAMAKANJE
  ► ŽLED (gozdarstvo)
KARTOGRAFSKI PRIKAZI
SPLETNE POVEZAVE
PROJEKTI IN PUBLIKACIJE

AGROMETEOROLOŠKA MREŽA: VREMENSKE POSTAJE IN FENOLOŠKA OPAZOVANJA

Pregled podatkov za lokacijo Resje, meteorološka postaja 39326

Pregled senzorjev na lokaciji

ID Ime Zadnja
vrednost
Datum
zadnje
spremembe
Tip
senzorja
2437 Padavine 0.2 mm (mm) 0 mm 27.6.2017 10:30 Rain-O-Matic
2438 Temperatura 2 m ( °C) 24,08 °C 27.6.2017 10:30 50YA
2439 Relativna vlaga 2 m (% RH) 63,64 % RH 27.6.2017 10:30 50YA
2440 Omočenost lista (U) 0 U 27.6.2017 10:30 A730WET

Pregled podatkov zadnjih 24 ur

Zap.
št.
Datum in čas Resje
Omočenost
lista
Padavine
0.2
mm
Relativna
vlaga
2
m
Temperatura
2
m
0 27.6.2017 09:30 0 0 63,64 24,08
1 27.6.2017 09:00 0 0 65,2 23,42
2 27.6.2017 08:30 0 0 63,79 23,13
3 27.6.2017 08:00 0 0 73,58 20,71
4 27.6.2017 07:30 0 0 82,37 18,93
5 27.6.2017 07:00 0 0 86,76 18,14
6 27.6.2017 06:30 0 0 89,55 17,39
7 27.6.2017 06:00 4 0 91,99 16,68
8 27.6.2017 05:30 4 0 94,82 16,19
9 27.6.2017 05:00 4 0 95,63 16
10 27.6.2017 04:30 4 0 95,38 15,78
11 27.6.2017 04:00 4 0 96,97 15,43
12 27.6.2017 03:30 4 0 97,44 15,19
13 27.6.2017 03:00 5 0 94,31 15,56
14 27.6.2017 02:30 5 0 96,04 15,41
15 27.6.2017 02:00 6 0 95,26 15,14
16 27.6.2017 01:30 6 0 94,11 15,73
17 27.6.2017 01:00 7 0 94,07 15,73
18 27.6.2017 00:30 7 0 95,31 15,75
19 27.6.2017 00:00 7 0 96,31 15,58
20 26.6.2017 23:30 7 0 95,6 15,65
21 26.6.2017 23:00 7 0 92,92 16,56
22 26.6.2017 22:30 6 0 92,14 17,07
23 26.6.2017 22:00 4 0 88,01 17,73
24 26.6.2017 21:30 6 0 88,03 18,02
25 26.6.2017 21:00 5 0 88,4 18,14
26 26.6.2017 20:30 1 0 80,32 19,93
27 26.6.2017 20:00 0 0 72,43 21,73
28 26.6.2017 19:30 0 0 58,51 24,81
29 26.6.2017 19:00 0 0 50,01 26,25
30 26.6.2017 18:30 0 0 49,38 27,11
31 26.6.2017 18:00 0 0 49,99 27,33
32 26.6.2017 17:30 0 0 49,01 27,52
33 26.6.2017 17:00 0 0 48,21 27,52
34 26.6.2017 16:30 0 0 47,47 27,55
35 26.6.2017 16:00 0 0 48,45 27,72
36 26.6.2017 15:30 0 0 48,62 27,4
37 26.6.2017 15:00 0 0 49,5 27,03
38 26.6.2017 14:30 0 0 50,4 26,57
39 26.6.2017 14:00 0 0 51,43 26,35
40 26.6.2017 13:30 0 0 51,55 26,25
41 26.6.2017 13:00 0 0 52,36 25,86
42 26.6.2017 12:30 0 0 53,16 25,15
43 26.6.2017 12:00 0 0 53,55 24,42
44 26.6.2017 11:30 0 0 56,87 24,54
45 26.6.2017 11:00 0 0 61,1 24,3
© 2011 Ministrstvo za kmetijstvo, gozdarstvo in prehrano. Vse pravice pridržane.